Terminal Aerodrome Forecast
Issued by NWS

Home | Current Version | Previous Version | Graphics & Text | Print | Product List | Glossary On
Versions: 1 2 3 4 5 6 7 8 9 10 11 12 13 14 15 16
779
FTUS43 KMPX 221138
TAFAXN
TAF
KAXN 221138Z 2212/2312 16010KT P6SM FEW250
     FM221500 18013G19KT P6SM SCT250
     FM221900 18017G25KT P6SM SCT250
     FM230100 18013G19KT P6SM FEW250=

USA.gov is the U.S. government's official web portal to all federal, state and local government web resources and services.